createdAt,value
2023-02-20T00:01:53.518Z,100.00
2023-02-20T00:03:56.255Z,100.00
2023-02-20T00:05:58.933Z,100.00
2023-02-20T00:08:01.810Z,100.00
2023-02-20T00:10:04.726Z,100.00
2023-02-20T00:12:07.694Z,100.00
2023-02-20T00:14:10.468Z,100.00
2023-02-20T00:16:15.203Z,100.00
2023-02-20T00:18:18.311Z,100.00
2023-02-20T00:20:23.442Z,100.00
2023-02-20T00:22:27.136Z,100.00
2023-02-20T00:24:29.812Z,100.00
2023-02-20T00:26:32.392Z,100.00
2023-02-20T00:28:35.142Z,100.00
2023-02-20T00:30:37.859Z,100.00
2023-02-20T00:32:41.987Z,100.00
2023-02-20T00:34:44.589Z,100.00
2023-02-20T00:36:47.326Z,100.00
2023-02-20T00:38:50.038Z,100.00
2023-02-20T00:40:52.790Z,100.00
2023-02-20T00:42:55.521Z,100.00
2023-02-20T00:44:58.188Z,100.00
2023-02-20T00:47:00.888Z,100.00
2023-02-20T00:49:04.973Z,100.00
2023-02-20T00:51:07.558Z,100.00
2023-02-20T00:53:10.214Z,100.00
2023-02-20T00:55:13.304Z,100.00
2023-02-20T00:57:16.211Z,100.00
2023-02-20T00:59:18.922Z,100.00
2023-02-20T01:01:22.390Z,100.00
2023-02-20T01:03:25.034Z,100.00
2023-02-20T01:05:29.069Z,100.00
2023-02-20T01:07:31.784Z,100.00
2023-02-20T01:09:34.430Z,100.00
2023-02-20T01:11:37.100Z,100.00
2023-02-20T01:13:39.925Z,100.00
2023-02-20T01:15:42.858Z,100.00
2023-02-20T01:17:45.526Z,100.00
2023-02-20T01:19:48.139Z,100.00
2023-02-20T01:21:52.852Z,100.00
2023-02-20T01:23:55.509Z,100.00
2023-02-20T01:25:58.199Z,100.00
2023-02-20T01:28:00.902Z,100.00
2023-02-20T01:30:03.911Z,100.00
2023-02-20T01:32:06.689Z,100.00
2023-02-20T01:34:09.569Z,100.00
2023-02-20T01:36:13.429Z,100.00
2023-02-20T01:38:17.617Z,100.00
2023-02-20T01:40:23.091Z,100.00
2023-02-20T01:42:29.530Z,100.00
2023-02-20T01:44:35.002Z,100.00
2023-02-20T01:46:58.746Z,100.00
2023-02-20T01:49:06.574Z,100.00
2023-02-20T01:51:09.266Z,100.00
2023-02-20T01:53:15.141Z,100.00
2023-02-20T01:55:23.177Z,100.00
2023-02-20T01:57:29.538Z,100.00
2023-02-20T01:59:36.890Z,100.00
2023-02-20T02:01:40.341Z,100.00
2023-02-20T02:03:45.735Z,100.00
2023-02-20T02:05:50.546Z,100.00
2023-02-20T02:07:53.526Z,100.00
2023-02-20T02:10:00.820Z,100.00
2023-02-20T02:12:05.401Z,100.00
2023-02-20T02:14:08.832Z,100.00
2023-02-20T02:16:24.366Z,100.00
2023-02-20T02:18:43.733Z,100.00
2023-02-20T02:21:25.041Z,100.00
2023-02-20T02:24:18.114Z,100.00
2023-02-20T02:26:49.058Z,100.00
2023-02-20T02:29:27.909Z,100.00
2023-02-20T02:32:06.607Z,100.00
2023-02-20T02:34:53.691Z,100.00
2023-02-20T02:37:05.858Z,100.00
2023-02-20T02:39:17.758Z,100.00
2023-02-20T02:41:29.934Z,100.00
2023-02-20T02:43:42.398Z,100.00
2023-02-20T02:45:52.863Z,100.00
2023-02-20T02:48:01.236Z,100.00
2023-02-20T02:50:09.147Z,100.00
2023-02-20T02:52:33.711Z,100.00
2023-02-20T02:54:36.520Z,100.00
2023-02-20T02:56:41.313Z,100.00
2023-02-20T02:58:44.050Z,100.00
2023-02-20T03:00:52.391Z,100.00
2023-02-20T03:03:00.867Z,100.00
2023-02-20T03:05:07.127Z,100.00
2023-02-20T03:07:12.288Z,100.00
2023-02-20T03:09:21.792Z,100.00
2023-02-20T03:11:26.934Z,100.00
2023-02-20T03:13:50.249Z,100.00
2023-02-20T03:15:55.956Z,100.00
2023-02-20T03:18:10.622Z,100.00
2023-02-20T03:20:16.746Z,100.00
2023-02-20T03:22:22.609Z,100.00
2023-02-20T03:24:28.654Z,100.00
2023-02-20T03:26:35.899Z,100.00
2023-02-20T03:28:41.691Z,100.00
2023-02-20T03:30:47.933Z,100.00
2023-02-20T03:33:17.014Z,100.00
2023-02-20T03:35:39.056Z,100.00
2023-02-20T03:38:00.999Z,100.00
2023-02-20T03:40:27.467Z,100.00
2023-02-20T03:42:52.237Z,100.00
2023-02-20T03:44:56.836Z,100.00
2023-02-20T03:47:02.345Z,100.00
2023-02-20T03:49:07.950Z,100.00
2023-02-20T03:51:10.473Z,100.00
2023-02-20T03:53:13.570Z,100.00
2023-02-20T03:55:17.664Z,100.00
2023-02-20T03:57:26.038Z,100.00
2023-02-20T03:59:32.572Z,100.00
2023-02-20T04:01:37.719Z,100.00
2023-02-20T04:03:43.741Z,100.00
2023-02-20T04:05:49.925Z,100.00
2023-02-20T04:07:57.733Z,100.00
2023-02-20T04:10:04.179Z,100.00
2023-02-20T04:12:15.594Z,100.00
2023-02-20T04:14:22.202Z,100.00
2023-02-20T04:16:25.552Z,100.00
2023-02-20T04:18:30.332Z,100.00
2023-02-20T04:20:33.050Z,100.00
2023-02-20T04:22:40.830Z,100.00
2023-02-20T04:24:48.931Z,100.00
2023-02-20T04:26:51.900Z,100.00
2023-02-20T04:28:56.053Z,100.00
2023-02-20T04:30:58.818Z,100.00
2023-02-20T04:33:01.609Z,100.00
2023-02-20T04:35:04.442Z,100.00
2023-02-20T04:37:10.808Z,100.00
2023-02-20T04:39:13.434Z,100.00
2023-02-20T04:41:16.494Z,100.00
2023-02-20T04:43:19.139Z,100.00
2023-02-20T04:45:23.058Z,100.00
2023-02-20T04:47:26.267Z,100.00
2023-02-20T04:49:29.879Z,100.00
2023-02-20T04:51:32.488Z,100.00
2023-02-20T04:53:35.121Z,100.00
2023-02-20T04:55:37.859Z,100.00
2023-02-20T04:57:40.572Z,100.00
2023-02-20T04:59:43.421Z,100.00
2023-02-20T05:01:52.004Z,100.00
2023-02-20T05:03:54.828Z,100.00
2023-02-20T05:05:57.437Z,100.00
2023-02-20T05:08:02.308Z,100.00
2023-02-20T05:10:04.994Z,100.00
2023-02-20T05:12:08.342Z,100.00
2023-02-20T05:14:11.669Z,100.00
2023-02-20T05:16:14.965Z,100.00
2023-02-20T05:18:26.656Z,100.00
2023-02-20T05:20:43.787Z,100.00
2023-02-20T05:22:46.533Z,100.00
2023-02-20T05:24:50.663Z,100.00
2023-02-20T05:26:54.034Z,100.00
2023-02-20T05:28:56.651Z,100.00
2023-02-20T05:30:59.266Z,100.00
2023-02-20T05:33:01.893Z,100.00
2023-02-20T05:35:06.205Z,100.00
2023-02-20T05:37:08.867Z,100.00
2023-02-20T05:39:11.567Z,100.00
2023-02-20T05:41:14.411Z,100.00
2023-02-20T05:43:17.468Z,100.00
2023-02-20T05:45:20.228Z,100.00
2023-02-20T05:47:22.932Z,100.00
2023-02-20T05:49:26.270Z,100.00
2023-02-20T05:51:32.842Z,100.00
2023-02-20T05:53:36.555Z,100.00
2023-02-20T05:55:39.130Z,100.00
2023-02-20T05:57:41.825Z,100.00
2023-02-20T05:59:44.618Z,100.00
2023-02-20T06:01:47.610Z,100.00
2023-02-20T06:03:50.692Z,100.00
2023-02-20T06:05:56.272Z,100.00
2023-02-20T06:08:00.363Z,100.00
2023-02-20T06:10:04.633Z,100.00
2023-02-20T06:12:07.825Z,100.00
2023-02-20T06:14:10.475Z,100.00
2023-02-20T06:16:14.772Z,100.00
2023-02-20T06:18:17.699Z,100.00
2023-02-20T06:20:21.670Z,100.00
2023-02-20T06:22:24.349Z,100.00
2023-02-20T06:24:29.284Z,100.00
2023-02-20T06:26:31.887Z,100.00
2023-02-20T06:28:34.756Z,100.00
2023-02-20T06:30:37.449Z,100.00
2023-02-20T06:32:40.052Z,100.00
2023-02-20T06:34:42.805Z,100.00
2023-02-20T06:36:46.546Z,100.00
2023-02-20T06:38:49.217Z,100.00
2023-02-20T06:40:53.481Z,100.00
2023-02-20T06:42:56.129Z,100.00
2023-02-20T06:44:58.760Z,100.00
2023-02-20T06:47:01.712Z,100.00
2023-02-20T06:49:04.797Z,100.00
2023-02-20T06:51:07.454Z,100.00
2023-02-20T06:53:10.573Z,100.00
2023-02-20T06:55:13.329Z,100.00
2023-02-20T06:57:17.364Z,100.00
2023-02-20T06:59:20.597Z,100.00
2023-02-20T07:01:27.050Z,100.00
2023-02-20T07:03:29.773Z,100.00
2023-02-20T07:05:32.359Z,100.00
2023-02-20T07:07:35.005Z,100.00
2023-02-20T07:09:37.664Z,100.00
2023-02-20T07:11:40.927Z,100.00
2023-02-20T07:13:45.007Z,100.00
2023-02-20T07:15:47.737Z,100.00
2023-02-20T07:17:50.429Z,100.00
2023-02-20T07:19:53.133Z,100.00
2023-02-20T07:21:55.855Z,100.00
2023-02-20T07:23:58.631Z,100.00
2023-02-20T07:26:01.468Z,100.00
2023-02-20T07:28:04.279Z,100.00
2023-02-20T07:30:09.370Z,100.00
2023-02-20T07:32:12.067Z,100.00
2023-02-20T07:34:14.830Z,100.00
2023-02-20T07:36:18.040Z,100.00
2023-02-20T07:38:20.680Z,100.00
2023-02-20T07:40:31.640Z,100.00
2023-02-20T07:42:34.309Z,100.00
2023-02-20T07:44:37.154Z,100.00
2023-02-20T07:46:42.641Z,100.00
2023-02-20T07:48:45.316Z,100.00
2023-02-20T07:50:47.993Z,100.00
2023-02-20T07:52:50.636Z,100.00
2023-02-20T07:54:53.627Z,100.00
2023-02-20T07:56:56.889Z,98.90
2023-02-20T07:59:00.965Z,95.99
2023-02-20T08:01:03.977Z,94.45
2023-02-20T08:03:07.945Z,93.81
2023-02-20T08:05:10.955Z,92.41
2023-02-20T08:07:13.772Z,91.71
2023-02-20T08:09:16.424Z,90.37
2023-02-20T08:11:22.415Z,90.30
2023-02-20T08:13:25.216Z,87.91
2023-02-20T08:15:27.926Z,87.48
2023-02-20T08:17:45.285Z,83.86
2023-02-20T08:19:49.801Z,80.71
2023-02-20T08:21:52.492Z,80.90
2023-02-20T08:23:55.273Z,82.63
2023-02-20T08:25:57.915Z,85.54
2023-02-20T08:28:00.599Z,83.57
2023-02-20T08:30:03.418Z,80.33
2023-02-20T08:32:06.292Z,78.45
2023-02-20T08:34:09.305Z,78.50
2023-02-20T08:36:15.398Z,74.39
2023-02-20T08:38:30.106Z,74.51
2023-02-20T08:40:33.278Z,70.96
2023-02-20T08:42:36.287Z,70.53
2023-02-20T08:44:41.805Z,67.81
2023-02-20T08:46:48.644Z,70.28
2023-02-20T08:48:51.291Z,69.04
2023-02-20T08:50:54.392Z,69.92
2023-02-20T08:53:00.012Z,71.93
2023-02-20T08:55:02.794Z,72.36
2023-02-20T08:57:05.530Z,69.16
2023-02-20T08:59:08.218Z,65.06
2023-02-20T09:01:10.826Z,64.26
2023-02-20T09:03:13.515Z,65.37
2023-02-20T09:05:16.523Z,62.77
2023-02-20T09:07:19.210Z,65.32
2023-02-20T09:09:23.261Z,62.86
2023-02-20T09:11:26.257Z,64.50
2023-02-20T09:13:29.230Z,62.82
2023-02-20T09:15:35.948Z,57.25
2023-02-20T09:17:39.192Z,59.83
2023-02-20T09:19:42.060Z,58.92
2023-02-20T09:21:46.797Z,59.04
2023-02-20T09:23:51.875Z,57.84
2023-02-20T09:25:55.931Z,58.82
2023-02-20T09:27:58.839Z,59.01
2023-02-20T09:30:01.701Z,59.07
2023-02-20T09:32:04.795Z,58.78
2023-02-20T09:34:07.556Z,55.54
2023-02-20T09:36:10.798Z,54.65
2023-02-20T09:38:13.533Z,57.80
2023-02-20T09:40:17.229Z,56.07
2023-02-20T09:42:32.812Z,55.23
2023-02-20T09:44:43.236Z,54.52
2023-02-20T09:46:46.771Z,53.65
2023-02-20T09:49:13.399Z,52.51
2023-02-20T09:51:18.877Z,54.52
2023-02-20T09:53:27.250Z,55.77
2023-02-20T09:55:35.847Z,50.54
2023-02-20T09:57:41.169Z,53.05
2023-02-20T09:59:48.839Z,55.33
2023-02-20T10:01:56.279Z,53.19
2023-02-20T10:04:02.120Z,56.91
2023-02-20T10:06:14.878Z,57.67
2023-02-20T10:08:20.666Z,56.86
2023-02-20T10:10:25.660Z,56.57
2023-02-20T10:12:33.556Z,54.75
2023-02-20T10:14:49.417Z,57.51
2023-02-20T10:17:03.790Z,58.92
2023-02-20T10:19:18.658Z,59.91
2023-02-20T10:21:33.675Z,60.06
2023-02-20T10:23:49.346Z,60.52
2023-02-20T10:26:02.465Z,59.13
2023-02-20T10:28:09.360Z,56.96
2023-02-20T10:30:16.437Z,57.19
2023-02-20T10:32:26.471Z,59.47
2023-02-20T10:34:35.539Z,60.00
2023-02-20T10:36:42.473Z,59.76
2023-02-20T10:38:49.834Z,59.57
2023-02-20T10:40:58.612Z,59.90
2023-02-20T10:43:05.478Z,57.96
2023-02-20T10:45:15.119Z,57.92
2023-02-20T10:47:26.412Z,57.01
2023-02-20T10:49:36.845Z,57.23
2023-02-20T10:51:45.801Z,58.04
2023-02-20T10:53:56.281Z,59.83
2023-02-20T10:56:06.948Z,59.57
2023-02-20T10:58:15.280Z,59.68
2023-02-20T11:00:23.691Z,59.93
2023-02-20T11:02:32.139Z,58.34
2023-02-20T11:04:38.702Z,59.41
2023-02-20T11:06:43.865Z,59.77
2023-02-20T11:08:47.331Z,58.87
2023-02-20T11:10:51.159Z,60.41
2023-02-20T11:12:59.031Z,60.17
2023-02-20T11:15:06.124Z,60.92
2023-02-20T11:17:12.442Z,60.86
2023-02-20T11:19:22.325Z,61.02
2023-02-20T11:21:37.173Z,60.95
2023-02-20T11:23:42.498Z,60.21
2023-02-20T11:25:45.224Z,61.00
2023-02-20T11:27:50.935Z,60.34
2023-02-20T11:29:57.300Z,60.83
2023-02-20T11:32:18.809Z,59.42
2023-02-20T11:34:25.974Z,60.01
2023-02-20T11:36:33.600Z,59.55
2023-02-20T11:38:38.044Z,59.28
2023-02-20T11:40:40.889Z,59.56
2023-02-20T11:42:45.170Z,59.89
2023-02-20T11:45:13.172Z,59.64
2023-02-20T11:47:28.029Z,59.64
2023-02-20T11:49:32.448Z,59.80
2023-02-20T11:51:38.359Z,59.79
2023-02-20T11:53:41.150Z,59.42
2023-02-20T11:55:46.500Z,58.79
2023-02-20T11:57:54.496Z,59.32
2023-02-20T12:00:15.106Z,58.96
2023-02-20T12:02:28.234Z,58.67
2023-02-20T12:04:32.213Z,57.85
2023-02-20T12:06:43.263Z,58.30
2023-02-20T12:08:55.247Z,58.32
2023-02-20T12:11:01.929Z,58.77
2023-02-20T12:13:06.340Z,58.52
2023-02-20T12:15:14.223Z,59.18
2023-02-20T12:17:26.803Z,59.15
2023-02-20T12:19:45.026Z,58.39
2023-02-20T12:22:00.519Z,58.08
2023-02-20T12:24:15.332Z,57.42
2023-02-20T12:26:26.915Z,57.16
2023-02-20T12:28:40.443Z,55.78
2023-02-20T12:30:57.417Z,56.96
2023-02-20T12:33:15.478Z,57.00
2023-02-20T12:35:30.625Z,55.89
2023-02-20T12:37:48.543Z,55.93
2023-02-20T12:40:04.507Z,54.85
2023-02-20T12:42:17.878Z,54.29
2023-02-20T12:44:50.558Z,53.06
2023-02-20T12:47:03.305Z,52.94
2023-02-20T12:49:26.245Z,52.10
2023-02-20T12:51:40.153Z,49.87
2023-02-20T12:53:57.802Z,49.79
2023-02-20T12:56:11.014Z,49.88
2023-02-20T12:58:25.767Z,47.97
2023-02-20T13:00:34.301Z,47.70
2023-02-20T13:02:42.848Z,46.58
2023-02-20T13:04:51.793Z,47.56
2023-02-20T13:07:04.198Z,46.82
2023-02-20T13:09:19.661Z,48.06
2023-02-20T13:11:27.380Z,46.26
2023-02-20T13:13:38.781Z,46.38
2023-02-20T13:15:49.388Z,46.44
2023-02-20T13:17:58.258Z,45.89
2023-02-20T13:20:11.212Z,45.60
2023-02-20T13:22:16.816Z,45.36
2023-02-20T13:24:30.657Z,45.17
2023-02-20T13:26:49.549Z,45.98
2023-02-20T13:28:53.459Z,44.77
2023-02-20T13:31:14.243Z,44.03
2023-02-20T13:33:22.914Z,44.54
2023-02-20T13:35:45.908Z,44.14
2023-02-20T13:37:55.177Z,42.90
2023-02-20T13:39:57.759Z,43.52
2023-02-20T13:42:04.360Z,43.77
2023-02-20T13:44:34.489Z,44.33
2023-02-20T13:46:58.151Z,44.58
2023-02-20T13:49:00.822Z,43.29
2023-02-20T13:51:32.316Z,43.51
2023-02-20T13:53:36.365Z,44.60
2023-02-20T13:55:39.141Z,43.40
2023-02-20T13:57:47.114Z,44.60
2023-02-20T13:59:52.128Z,44.51
2023-02-20T14:01:56.433Z,43.03
2023-02-20T14:04:03.203Z,41.37
2023-02-20T14:06:09.749Z,41.04
2023-02-20T14:08:19.858Z,40.44
2023-02-20T14:10:29.711Z,41.69
2023-02-20T14:12:33.665Z,40.09
2023-02-20T14:14:39.953Z,39.84
2023-02-20T14:16:44.945Z,41.03
2023-02-20T14:18:47.658Z,39.72
2023-02-20T14:20:52.302Z,39.55
2023-02-20T14:23:19.160Z,39.47
2023-02-20T14:25:27.227Z,39.88
2023-02-20T14:27:33.200Z,38.22
2023-02-20T14:29:37.523Z,37.61
2023-02-20T14:31:40.445Z,36.91
2023-02-20T14:33:43.314Z,36.85
2023-02-20T14:36:02.286Z,37.28
2023-02-20T14:38:17.198Z,37.32
2023-02-20T14:40:25.433Z,37.03
2023-02-20T14:42:29.810Z,36.36
2023-02-20T14:44:33.671Z,35.50
2023-02-20T14:46:37.440Z,36.30
2023-02-20T14:48:40.923Z,36.55
2023-02-20T14:50:43.788Z,35.88
2023-02-20T14:52:46.645Z,35.83
2023-02-20T14:55:00.012Z,36.03
2023-02-20T14:57:04.787Z,36.33
2023-02-20T14:59:25.038Z,36.20
2023-02-20T15:01:38.937Z,35.68
2023-02-20T15:03:41.847Z,36.09
2023-02-20T15:05:45.037Z,36.22
2023-02-20T15:07:47.982Z,35.52
2023-02-20T15:09:54.050Z,36.09
2023-02-20T15:11:59.178Z,37.12
2023-02-20T15:14:03.925Z,36.61
2023-02-20T15:16:14.315Z,36.42
2023-02-20T15:18:18.881Z,37.15
2023-02-20T15:20:37.394Z,36.91
2023-02-20T15:22:40.894Z,37.26
2023-02-20T15:24:43.552Z,37.59
2023-02-20T15:26:47.115Z,37.16
2023-02-20T15:28:49.771Z,37.24
2023-02-20T15:31:23.001Z,36.58
2023-02-20T15:33:25.799Z,36.58
2023-02-20T15:35:31.090Z,35.21
2023-02-20T15:37:39.139Z,34.98
2023-02-20T15:39:51.894Z,35.58
2023-02-20T15:43:58.320Z,34.67
2023-02-20T15:46:01.112Z,35.68
2023-02-20T15:48:05.765Z,36.25
2023-02-20T15:50:08.545Z,35.78
2023-02-20T15:52:17.952Z,36.43
2023-02-20T15:54:20.762Z,36.49
2023-02-20T15:56:23.667Z,36.68
2023-02-20T15:58:33.510Z,37.24
2023-02-20T16:00:37.732Z,37.39
2023-02-20T16:02:40.601Z,37.20
2023-02-20T16:04:44.603Z,37.43
2023-02-20T16:06:47.301Z,37.41
2023-02-20T16:08:50.929Z,37.72
2023-02-20T16:10:54.463Z,37.95
2023-02-20T16:12:59.533Z,38.29
2023-02-20T16:15:02.516Z,38.72
2023-02-20T16:17:05.457Z,38.72
2023-02-20T16:19:14.746Z,38.73
2023-02-20T16:21:21.616Z,38.39
2023-02-20T16:23:24.289Z,38.91
2023-02-20T16:25:26.917Z,38.63
2023-02-20T16:27:30.509Z,39.10
2023-02-20T16:29:36.168Z,39.51
2023-02-20T16:32:13.707Z,40.07
2023-02-20T16:34:21.714Z,39.80
2023-02-20T16:36:27.607Z,39.81
2023-02-20T16:38:30.406Z,39.66
2023-02-20T16:40:33.100Z,40.23
2023-02-20T16:42:38.682Z,41.17
2023-02-20T16:44:44.563Z,40.70
2023-02-20T16:46:49.449Z,40.31
2023-02-20T16:48:52.141Z,40.25
2023-02-20T16:50:55.140Z,40.09
2023-02-20T16:53:02.880Z,40.78
2023-02-20T16:55:07.292Z,40.80
2023-02-20T16:57:09.898Z,41.24
2023-02-20T16:59:12.673Z,41.51
2023-02-20T17:01:15.552Z,41.47
2023-02-20T17:03:19.446Z,42.41
2023-02-20T17:05:24.715Z,41.70
2023-02-20T17:07:27.584Z,42.11
2023-02-20T17:09:43.070Z,42.63
2023-02-20T17:11:47.161Z,42.93
2023-02-20T17:13:49.837Z,43.52
2023-02-20T17:15:52.616Z,43.85
2023-02-20T17:17:55.570Z,43.48
2023-02-20T17:19:58.218Z,43.94
2023-02-20T17:22:01.198Z,44.00
2023-02-20T17:24:03.847Z,43.83
2023-02-20T17:26:09.448Z,44.42
2023-02-20T17:28:12.727Z,44.13
2023-02-20T17:30:16.698Z,43.89
2023-02-20T17:32:19.495Z,43.71
2023-02-20T17:34:22.423Z,44.08
2023-02-20T17:36:25.093Z,44.59
2023-02-20T17:38:27.803Z,44.98
2023-02-20T17:40:30.475Z,45.49
2023-02-20T17:42:34.529Z,45.62
2023-02-20T17:44:38.335Z,45.91
2023-02-20T17:46:42.606Z,46.01
2023-02-20T17:48:45.399Z,45.93
2023-02-20T17:50:48.285Z,46.10
2023-02-20T17:52:54.519Z,46.35
2023-02-20T17:54:57.178Z,48.34
2023-02-20T17:57:00.158Z,48.92
2023-02-20T17:59:06.059Z,47.90
2023-02-20T18:01:09.067Z,47.35
2023-02-20T18:03:11.814Z,46.73
2023-02-20T18:05:14.485Z,47.84
2023-02-20T18:07:17.485Z,48.71
2023-02-20T18:09:21.142Z,48.59
2023-02-20T18:11:23.973Z,49.25
2023-02-20T18:13:26.677Z,47.85
2023-02-20T18:15:30.795Z,47.71
2023-02-20T18:17:33.943Z,48.72
2023-02-20T18:19:36.648Z,47.50
2023-02-20T18:21:41.507Z,46.41
2023-02-20T18:23:44.153Z,46.54
2023-02-20T18:25:46.799Z,48.11
2023-02-20T18:27:49.900Z,47.80
2023-02-20T18:29:52.524Z,47.42
2023-02-20T18:31:57.626Z,48.02
2023-02-20T18:34:01.426Z,48.25
2023-02-20T18:36:08.328Z,48.43
2023-02-20T18:38:11.533Z,48.79
2023-02-20T18:40:14.300Z,49.08
2023-02-20T18:42:17.124Z,49.56
2023-02-20T18:44:20.604Z,49.72
2023-02-20T18:46:27.414Z,50.25
2023-02-20T18:48:31.468Z,50.06
2023-02-20T18:50:34.228Z,50.19
2023-02-20T18:52:36.857Z,50.30
2023-02-20T18:54:39.571Z,51.04
2023-02-20T18:56:42.318Z,50.72
2023-02-20T18:58:45.073Z,51.23
2023-02-20T19:00:47.938Z,51.62
2023-02-20T19:02:52.559Z,52.31
2023-02-20T19:04:58.125Z,53.05
2023-02-20T19:07:02.271Z,54.15
2023-02-20T19:09:05.381Z,54.32
2023-02-20T19:11:08.019Z,54.05
2023-02-20T19:13:10.789Z,52.82
2023-02-20T19:15:13.664Z,53.08
2023-02-20T19:17:16.450Z,54.49
2023-02-20T19:19:23.912Z,54.77
2023-02-20T19:21:28.321Z,54.67
2023-02-20T19:23:31.003Z,55.05
2023-02-20T19:25:33.880Z,53.78
2023-02-20T19:27:36.541Z,54.00
2023-02-20T19:29:41.682Z,54.73
2023-02-20T19:31:45.286Z,54.70
2023-02-20T19:33:49.378Z,54.74
2023-02-20T19:35:51.994Z,55.68
2023-02-20T19:37:55.980Z,56.94
2023-02-20T19:39:58.683Z,56.33
2023-02-20T19:42:01.356Z,57.16
2023-02-20T19:44:04.038Z,58.02
2023-02-20T19:46:06.870Z,57.84
2023-02-20T19:48:09.596Z,57.81
2023-02-20T19:50:12.557Z,58.94
2023-02-20T19:52:15.714Z,58.84
2023-02-20T19:54:23.015Z,58.58
2023-02-20T19:56:25.871Z,58.46
2023-02-20T19:58:28.762Z,58.74
2023-02-20T20:00:31.415Z,59.14
2023-02-20T20:02:34.087Z,58.72
2023-02-20T20:04:36.779Z,59.26
2023-02-20T20:06:40.461Z,58.52
2023-02-20T20:09:01.936Z,57.89
2023-02-20T20:11:07.591Z,58.54
2023-02-20T20:13:10.296Z,58.63
2023-02-20T20:15:13.369Z,59.83
2023-02-20T20:17:16.202Z,59.19
2023-02-20T20:19:19.802Z,59.29
2023-02-20T20:21:22.845Z,58.97
2023-02-20T20:23:25.458Z,58.62
2023-02-20T20:25:28.307Z,58.53
2023-02-20T20:27:32.594Z,59.25
2023-02-20T20:29:35.291Z,59.61
2023-02-20T20:31:40.126Z,59.58
2023-02-20T20:33:42.774Z,60.44
2023-02-20T20:35:45.447Z,60.26
2023-02-20T20:37:48.792Z,60.79
2023-02-20T20:39:51.912Z,59.03
2023-02-20T20:41:54.573Z,58.75
2023-02-20T20:44:04.332Z,59.62
2023-02-20T20:46:07.078Z,60.24
2023-02-20T20:48:09.978Z,60.83
2023-02-20T20:50:15.520Z,60.93
2023-02-20T20:52:18.511Z,60.84
2023-02-20T20:54:21.489Z,60.52
2023-02-20T20:56:24.229Z,61.02
2023-02-20T20:58:26.907Z,60.62
2023-02-20T21:00:32.763Z,61.84
2023-02-20T21:02:35.462Z,61.81
2023-02-20T21:04:39.381Z,61.14
2023-02-20T21:06:43.729Z,61.20
2023-02-20T21:08:46.433Z,62.08
2023-02-20T21:10:49.173Z,62.72
2023-02-20T21:12:51.949Z,62.88
2023-02-20T21:14:54.603Z,63.83
2023-02-20T21:16:59.106Z,64.18
2023-02-20T21:19:02.161Z,63.32
2023-02-20T21:21:05.064Z,63.24
2023-02-20T21:23:09.376Z,63.67
2023-02-20T21:25:12.338Z,63.71
2023-02-20T21:27:14.993Z,64.10
2023-02-20T21:29:17.686Z,64.14
2023-02-20T21:31:21.104Z,64.35
2023-02-20T21:33:25.181Z,64.56
2023-02-20T21:35:27.815Z,65.04
2023-02-20T21:37:30.668Z,64.04
2023-02-20T21:39:33.341Z,64.54
2023-02-20T21:42:05.202Z,65.24
2023-02-20T21:44:30.255Z,65.48
2023-02-20T21:46:32.920Z,65.19
2023-02-20T21:48:37.137Z,66.22
2023-02-20T21:50:39.749Z,65.15
2023-02-20T21:52:42.589Z,66.04
2023-02-20T21:54:48.769Z,66.45
2023-02-20T21:56:51.485Z,66.67
2023-02-20T21:59:04.285Z,66.42
2023-02-20T22:01:07.452Z,66.92
2023-02-20T22:03:11.228Z,67.85
2023-02-20T22:05:14.130Z,67.63
2023-02-20T22:07:34.669Z,67.53
2023-02-20T22:09:55.705Z,66.72
2023-02-20T22:12:16.241Z,65.86
2023-02-20T22:14:37.153Z,69.11
2023-02-20T22:16:57.635Z,68.36
2023-02-20T22:19:17.644Z,67.22
2023-02-20T22:21:42.154Z,68.51
2023-02-20T22:24:02.122Z,69.23
2023-02-20T22:26:22.398Z,69.19
2023-02-20T22:28:42.867Z,70.26
2023-02-20T22:31:03.333Z,69.57
2023-02-20T22:33:23.638Z,69.87
2023-02-20T22:35:43.988Z,70.69
2023-02-20T22:38:06.046Z,71.02
2023-02-20T22:40:27.205Z,70.81
2023-02-20T22:42:47.653Z,70.87
2023-02-20T22:45:08.040Z,70.46
2023-02-20T22:47:28.405Z,71.17
2023-02-20T22:49:48.970Z,71.40
2023-02-20T22:52:09.449Z,71.76
2023-02-20T22:54:31.055Z,71.69
2023-02-20T22:56:51.461Z,71.98
2023-02-20T22:59:11.880Z,72.02
2023-02-20T23:01:32.093Z,73.13
2023-02-20T23:03:52.596Z,73.32
2023-02-20T23:06:18.429Z,73.88
2023-02-20T23:08:39.079Z,73.56
2023-02-20T23:11:00.673Z,74.25
2023-02-20T23:13:21.509Z,73.87
2023-02-20T23:15:41.855Z,74.13
2023-02-20T23:18:02.230Z,74.50
2023-02-20T23:20:24.952Z,75.15
2023-02-20T23:22:45.313Z,75.30
2023-02-20T23:25:05.604Z,74.49
2023-02-20T23:27:27.101Z,74.67
2023-02-20T23:29:47.493Z,75.49
2023-02-20T23:32:08.011Z,74.12
2023-02-20T23:34:28.112Z,74.07
2023-02-20T23:36:48.499Z,74.17
2023-02-20T23:39:09.806Z,74.29
2023-02-20T23:41:30.049Z,73.95
2023-02-20T23:43:51.791Z,74.11
2023-02-20T23:46:12.616Z,75.14
2023-02-20T23:48:33.197Z,74.98
2023-02-20T23:50:53.546Z,75.16
2023-02-20T23:53:13.811Z,75.87
2023-02-20T23:55:34.169Z,76.47
2023-02-20T23:57:55.422Z,75.44
